Time;durP1;ratioP1;P1;durP2;ratioP2;P2;SDS_P1;SDS_P2;PMS_P1;PMS_P2;Temp;Humidity;BMP_temperature;BMP_pressure;BME280_temperature;BME280_humidity;BME280_pressure;Samples;Min_cycle;Max_cycle;Signal;HPM_P1;HPM_P2
2022/10/18 00:01:57;;;;;;;25.20;15.83;;;;;;;8.56;90.06;101890.24;1401239;93;21414;-83
2022/10/18 00:04:23;;;;;;;29.93;17.30;;;;;;;8.56;90.12;101890.24;1398758;93;21398;-82
2022/10/18 00:06:49;;;;;;;27.70;17.97;;;;;;;8.57;89.67;101889.32;1400063;93;21414;-82
2022/10/18 00:09:15;;;;;;;31.60;19.73;;;;;;;8.56;89.91;101884.13;1393456;93;21326;-81
2022/10/18 00:11:41;;;;;;;28.40;18.47;;;;;;;8.53;90.01;101886.48;1404307;93;21364;-82
2022/10/18 00:14:08;;;;;;;29.03;15.60;;;;;;;8.49;90.25;101891.59;1407585;93;21436;-82
2022/10/18 00:16:34;;;;;;;27.10;16.40;;;;;;;8.44;90.10;101880.48;1392909;93;21700;-82
2022/10/18 00:19:00;;;;;;;23.43;16.10;;;;;;;8.45;89.83;101887.45;1399873;93;21259;-83
2022/10/18 00:21:26;;;;;;;24.97;16.17;;;;;;;8.44;90.13;101888.41;1398187;93;21400;-81
2022/10/18 00:23:53;;;;;;;32.50;16.97;;;;;;;8.43;90.03;101880.13;1398692;93;21422;-82
2022/10/18 00:26:24;;;;;;;25.97;18.07;;;;;;;8.43;90.48;101877.48;1400647;93;21325;-81
2022/10/18 00:28:54;;;;;;;27.42;17.12;;;;;;;8.44;90.52;101877.84;1397749;93;21362;-84
2022/10/18 00:31:31;;;;;;;24.70;16.97;;;;;;;8.44;90.89;101873.89;1401839;93;21413;-83
2022/10/18 00:34:01;;;;;;;26.47;17.00;;;;;;;8.40;90.61;101871.09;1399957;93;21334;-82
2022/10/18 00:36:29;;;;;;;23.93;14.97;;;;;;;8.38;91.18;101866.81;1396742;93;21369;-83
2022/10/18 00:38:56;;;;;;;30.53;15.77;;;;;;;8.34;90.60;101868.34;1394981;93;21489;-81
2022/10/18 00:41:26;;;;;;;32.07;17.60;;;;;;;8.33;90.39;101867.09;1402098;93;21393;-82
2022/10/18 00:44:07;;;;;;;31.85;20.55;;;;;;;8.29;91.63;101872.21;1407085;93;21362;-81
2022/10/18 00:46:36;;;;;;;35.17;22.55;;;;;;;8.26;91.02;101871.09;1372859;93;21626;-82
2022/10/18 00:49:08;;;;;;;40.63;26.30;;;;;;;8.21;91.69;101867.89;1401851;93;21420;-83
2022/10/18 00:51:43;;;;;;;35.53;23.33;;;;;;;8.14;92.17;101866.96;1392776;94;21666;-80
2022/10/18 00:54:11;;;;;;;33.67;22.80;;;;;;;8.09;92.66;101867.72;1377926;95;21627;-82
2022/10/18 00:56:38;;;;;;;34.83;21.80;;;;;;;8.07;92.88;101859.52;1406838;93;22086;-82
2022/10/18 00:59:06;;;;;;;30.53;21.33;;;;;;;8.04;92.07;101852.64;1396016;93;21526;-81
2022/10/18 01:01:32;;;;;;;31.87;18.77;;;;;;;8.04;91.58;101857.92;1399635;93;22290;-80
2022/10/18 01:03:58;;;;;;;35.53;20.97;;;;;;;8.02;91.67;101858.48;1400143;93;21547;-82
2022/10/18 01:06:27;;;;;;;43.83;23.93;;;;;;;7.99;91.96;101856.03;1395565;93;22338;-83
2022/10/18 01:09:01;;;;;;;36.10;25.23;;;;;;;7.96;92.41;101858.87;1398670;93;21385;-83
2022/10/18 01:11:44;;;;;;;43.97;27.10;;;;;;;7.92;91.93;101852.11;1405383;93;22369;-83
2022/10/18 01:14:49;;;;;;;41.13;28.67;;;;;;;7.88;92.89;101851.45;1381816;93;22060;-84
2022/10/18 01:17:32;;;;;;;35.97;22.87;;;;;;;7.83;93.34;101850.05;1399000;93;21436;-82
2022/10/18 01:20:15;;;;;;;32.30;19.40;;;;;;;7.76;93.63;101848.72;1397720;93;22265;-85
2022/10/18 01:22:50;;;;;;;47.50;21.33;;;;;;;7.69;94.77;101848.25;1398654;93;21480;-84
2022/10/18 01:25:22;;;;;;;38.97;22.40;;;;;;;7.67;94.67;101839.59;1396551;93;21488;-84
2022/10/18 01:27:56;;;;;;;30.07;17.00;;;;;;;7.66;94.18;101841.86;1394704;93;21348;-84
2022/10/18 01:30:45;;;;;;;45.83;19.87;;;;;;;7.67;93.65;101839.11;1391658;93;21576;-82
2022/10/18 01:33:23;;;;;;;38.57;20.50;;;;;;;7.66;93.67;101833.48;1401258;93;21383;-83
2022/10/18 01:36:07;;;;;;;35.97;20.07;;;;;;;7.61;93.00;101831.59;1398670;93;21340;-79
2022/10/18 01:38:35;;;;;;;40.57;19.07;;;;;;;7.55;92.88;101830.65;1395397;93;22397;-82
2022/10/18 01:41:03;;;;;;;37.00;17.53;;;;;;;7.47;93.61;101828.95;1376983;95;21324;-84
2022/10/18 01:43:32;;;;;;;27.03;16.33;;;;;;;7.39;94.35;101823.30;1394023;93;21406;-84
2022/10/18 01:45:59;;;;;;;26.77;18.10;;;;;;;7.35;94.79;101819.16;1396678;93;21494;-82
2022/10/18 01:48:28;;;;;;;29.50;16.63;;;;;;;7.35;94.12;101815.22;1400562;93;22227;-80
2022/10/18 01:50:54;;;;;;;35.47;16.77;;;;;;;7.37;94.01;101811.55;1399190;93;21302;-84
2022/10/18 01:53:28;;;;;;;31.03;16.87;;;;;;;7.41;93.74;101812.20;1393201;93;21421;-84
2022/10/18 01:56:05;;;;;;;27.37;19.00;;;;;;;7.44;93.71;101814.17;1404401;93;21407;-86
2022/10/18 01:58:43;;;;;;;32.03;19.63;;;;;;;7.47;93.59;101815.77;1395203;93;21406;-84
2022/10/18 02:01:20;;;;;;;29.77;17.73;;;;;;;7.46;93.65;101808.83;1399128;93;21538;-84
2022/10/18 02:03:49;;;;;;;24.13;16.97;;;;;;;7.43;93.81;101810.33;1405286;93;21466;-81
2022/10/18 02:06:24;;;;;;;28.20;17.00;;;;;;;7.38;94.97;101801.85;1395978;93;21311;-80
2022/10/18 02:09:17;;;;;;;37.33;17.40;;;;;;;7.35;95.53;101802.05;1397731;93;21576;-81
2022/10/18 02:11:45;;;;;;;28.33;16.30;;;;;;;7.35;94.74;101807.31;1400236;93;22266;-81
2022/10/18 02:14:15;;;;;;;33.57;16.33;;;;;;;7.35;94.52;101807.31;1375722;93;22481;-81
2022/10/18 02:16:47;;;;;;;22.60;16.10;;;;;;;7.37;93.88;101802.80;1395441;93;21385;-82
2022/10/18 02:19:30;;;;;;;34.03;16.33;;;;;;;7.41;93.70;101806.45;1360716;96;21333;-80
2022/10/18 02:21:58;;;;;;;28.93;17.37;;;;;;;7.40;93.73;101801.30;1381158;95;21527;-81
2022/10/18 02:24:38;;;;;;;28.43;16.83;;;;;;;7.32;93.87;101797.80;1379516;95;21431;-83
2022/10/18 02:27:04;;;;;;;29.45;17.60;;;;;;;7.24;94.51;101800.89;1374570;95;21550;-83
2022/10/18 02:29:31;;;;;;;28.23;17.40;;;;;;;7.14;94.59;101801.56;1384557;95;21613;-84
2022/10/18 02:32:20;;;;;;;26.97;16.30;;;;;;;7.10;95.01;101806.61;1378651;95;21519;-84
2022/10/18 02:34:58;;;;;;;35.30;16.53;;;;;;;7.08;94.89;101805.41;1383346;95;21851;-83
2022/10/18 02:37:30;;;;;;;30.27;16.70;;;;;;;7.06;95.57;101799.37;1375892;94;21992;-83
2022/10/18 02:39:56;;;;;;;25.80;14.40;;;;;;;7.03;95.51;101799.56;1401404;93;21472;-85
2022/10/18 02:42:23;;;;;;;24.83;13.70;;;;;;;7.04;95.42;101800.40;1402198;93;22327;-84
2022/10/18 02:44:49;;;;;;;39.27;18.37;;;;;;;7.01;94.79;101797.00;1385344;95;21372;-82
2022/10/18 02:47:15;;;;;;;28.60;16.90;;;;;;;7.00;94.53;101803.69;1372470;95;21385;-83
2022/10/18 02:49:41;;;;;;;32.47;15.50;;;;;;;7.00;94.21;101795.31;1378727;95;21514;-83
2022/10/18 02:52:07;;;;;;;38.17;17.20;;;;;;;6.99;94.20;101796.27;1376186;95;21400;-82
2022/10/18 02:54:33;;;;;;;29.43;17.57;;;;;;;6.98;94.20;101802.92;1380243;95;22332;-80
2022/10/18 02:56:59;;;;;;;23.47;14.97;;;;;;;6.99;93.94;101800.66;1384352;95;21372;-82
2022/10/18 02:59:25;;;;;;;27.63;13.80;;;;;;;6.96;95.40;101800.84;1374251;95;21498;-81
2022/10/18 03:01:51;;;;;;;22.67;15.00;;;;;;;6.94;96.69;101805.38;1351176;95;21372;-82
2022/10/18 03:04:18;;;;;;;20.53;13.40;;;;;;;6.94;96.01;101802.27;1378541;95;22341;-82
2022/10/18 03:06:44;;;;;;;27.27;14.77;;;;;;;6.95;95.40;101801.31;1383128;95;21584;-82
2022/10/18 03:09:10;;;;;;;31.37;14.70;;;;;;;6.96;95.08;101800.84;1373896;95;21341;-82
2022/10/18 03:11:36;;;;;;;27.70;16.50;;;;;;;6.98;95.09;101801.61;1379706;94;21480;-84
2022/10/18 03:14:02;;;;;;;28.17;16.00;;;;;;;6.97;94.43;101797.30;1374747;95;21417;-83
2022/10/18 03:16:28;;;;;;;25.20;16.17;;;;;;;6.97;93.99;101797.30;1380599;95;21415;-84
2022/10/18 03:18:54;;;;;;;25.00;15.73;;;;;;;6.95;93.66;101797.38;1385192;95;21453;-84
2022/10/18 03:21:21;;;;;;;27.13;16.80;;;;;;;6.93;93.59;101795.32;1376232;95;21357;-81
2022/10/18 03:23:47;;;;;;;28.63;16.87;;;;;;;6.94;93.39;101801.42;1379516;95;22178;-83
2022/10/18 03:26:13;;;;;;;22.07;16.30;;;;;;;6.94;93.29;101797.00;1372242;95;21460;-84
2022/10/18 03:28:39;;;;;;;22.70;15.33;;;;;;;6.98;93.27;101796.34;1380902;95;21421;-84
2022/10/18 03:31:05;;;;;;;24.30;15.20;;;;;;;7.00;93.13;101797.11;1377233;95;21388;-83
2022/10/18 03:33:32;;;;;;;29.03;16.37;;;;;;;7.01;93.08;101794.84;1371545;93;21662;-84
2022/10/18 03:35:58;;;;;;;24.27;14.80;;;;;;;7.02;93.02;101793.92;1392284;94;21480;-82
2022/10/18 03:38:24;;;;;;;26.30;17.70;;;;;;;7.01;93.36;101794.38;1377425;94;21495;-80
2022/10/18 03:40:51;;;;;;;39.23;18.10;;;;;;;7.00;92.86;101789.22;1372049;94;21391;-81
2022/10/18 03:43:17;;;;;;;27.93;16.87;;;;;;;7.01;92.73;101794.38;1377984;95;21489;-80
2022/10/18 03:45:44;;;;;;;24.13;15.93;;;;;;;6.99;93.08;101791.45;1371613;95;21320;-81
2022/10/18 03:48:10;;;;;;;24.23;16.27;;;;;;;6.99;92.99;101798.91;1367518;96;21407;-84
2022/10/18 03:50:36;;;;;;;24.60;14.93;;;;;;;6.98;92.98;101795.87;1371600;95;21429;-83
2022/10/18 03:53:02;;;;;;;27.87;15.67;;;;;;;6.98;93.20;101789.29;1378008;94;21642;-84
2022/10/18 03:55:28;;;;;;;31.80;17.90;;;;;;;7.00;92.96;101783.95;1384292;95;21576;-83
2022/10/18 03:57:54;;;;;;;26.90;16.67;;;;;;;7.04;92.70;101780.18;1383239;95;21533;-81
2022/10/18 04:00:21;;;;;;;28.40;16.87;;;;;;;7.04;92.79;101781.50;1380778;94;21487;-83
2022/10/18 04:02:47;;;;;;;33.20;18.63;;;;;;;7.03;92.96;101781.12;1379885;95;21421;-83
2022/10/18 04:05:14;;;;;;;29.10;19.07;;;;;;;7.01;93.21;101776.42;1386831;95;21503;-83
2022/10/18 04:07:40;;;;;;;24.13;16.93;;;;;;;6.97;93.23;101776.23;1386654;94;21592;-81
2022/10/18 04:10:07;;;;;;;27.77;17.87;;;;;;;6.92;94.39;101781.76;1375208;93;21570;-81
2022/10/18 04:12:33;;;;;;;29.70;16.80;;;;;;;6.90;93.59;101780.99;1398560;93;21348;-81
2022/10/18 04:14:59;;;;;;;26.53;15.90;;;;;;;6.91;93.34;101779.23;1398331;93;21701;-82
2022/10/18 04:17:25;;;;;;;27.53;17.13;;;;;;;6.92;93.71;101784.87;1399016;93;21332;-80
2022/10/18 04:19:51;;;;;;;26.70;17.47;;;;;;;6.94;93.79;101788.27;1404083;93;21457;-81
2022/10/18 04:22:17;;;;;;;32.63;20.73;;;;;;;6.93;93.72;101788.73;1388427;94;21421;-81
2022/10/18 04:24:44;;;;;;;28.70;17.37;;;;;;;6.92;93.49;101783.55;1392636;93;21348;-81
2022/10/18 04:27:09;;;;;;;30.93;20.10;;;;;;;6.90;93.41;101780.16;1399388;93;21622;-81
2022/10/18 04:29:36;;;;;;;28.20;17.07;;;;;;;6.85;93.15;101783.08;1395818;93;21519;-81
2022/10/18 04:32:02;;;;;;;29.93;19.40;;;;;;;6.81;93.68;101782.86;1395416;93;21503;-82
2022/10/18 04:34:28;;;;;;;33.23;16.83;;;;;;;6.78;94.13;101781.25;1398015;93;21450;-80
2022/10/18 04:36:54;;;;;;;34.17;16.80;;;;;;;6.73;95.33;101779.38;1397021;93;21466;-81
2022/10/18 04:39:20;;;;;;;25.03;15.97;;;;;;;6.70;95.30;101774.75;1370975;93;21672;-81
2022/10/18 04:41:46;;;;;;;30.37;16.87;;;;;;;6.70;95.48;101773.43;1389164;94;21325;-83
2022/10/18 04:44:12;;;;;;;25.57;18.93;;;;;;;6.70;95.27;101783.52;1381088;95;22392;-82
2022/10/18 04:46:39;;;;;;;29.80;17.20;;;;;;;6.67;95.00;101777.08;1376782;95;21392;-82
2022/10/18 04:49:05;;;;;;;35.00;18.57;;;;;;;6.67;94.61;101773.14;1378290;95;21350;-79
2022/10/18 04:51:31;;;;;;;23.90;17.17;;;;;;;6.64;94.19;101770.69;1376534;95;21370;-80
2022/10/18 04:53:57;;;;;;;25.17;17.03;;;;;;;6.61;94.56;101771.34;1377161;95;22383;-81
2022/10/18 04:56:22;;;;;;;30.87;17.27;;;;;;;6.56;94.23;101771.63;1382387;95;21379;-81
2022/10/18 04:58:48;;;;;;;25.47;16.33;;;;;;;6.54;94.11;101768.23;1375183;93;21386;-81
2022/10/18 05:01:16;;;;;;;33.70;18.10;;;;;;;6.52;94.90;101764.83;1379055;95;21468;-83
2022/10/18 05:03:42;;;;;;;22.60;16.63;;;;;;;6.50;95.38;101768.01;1374814;95;21319;-80
2022/10/18 05:06:08;;;;;;;35.20;16.63;;;;;;;6.51;95.09;101765.78;1376829;95;21371;-79
2022/10/18 05:08:35;;;;;;;31.37;19.27;;;;;;;6.52;95.11;101767.46;1398450;93;21473;-82
2022/10/18 05:11:02;;;;;;;32.23;18.00;;;;;;;6.53;95.02;101770.46;1405177;93;21479;-82
2022/10/18 05:13:29;;;;;;;46.93;19.77;;;;;;;6.54;95.23;101769.55;1411383;93;22338;-81
2022/10/18 05:15:58;;;;;;;34.07;17.07;;;;;;;6.54;95.02;101768.23;1379253;95;21546;-84
2022/10/18 05:18:23;;;;;;;36.33;17.67;;;;;;;6.51;95.27;101768.41;1382860;93;22567;-83
2022/10/18 05:20:49;;;;;;;25.60;15.43;;;;;;;6.48;95.43;101767.27;1390807;93;22119;-81
2022/10/18 05:23:15;;;;;;;38.27;18.77;;;;;;;6.49;95.25;101767.64;1399426;92;21387;-82
2022/10/18 05:25:43;;;;;;;23.60;16.40;;;;;;;6.54;94.75;101772.17;1402928;93;22273;-82
2022/10/18 05:28:09;;;;;;;38.87;16.73;;;;;;;6.55;94.61;101762.86;1397167;93;22435;-82
2022/10/18 05:30:40;;;;;;;34.27;16.27;;;;;;;6.59;94.27;101764.88;1398872;93;21460;-80
2022/10/18 05:33:07;;;;;;;39.80;17.67;;;;;;;6.62;94.23;101762.50;1405450;93;21319;-81
2022/10/18 05:35:34;;;;;;;29.00;17.27;;;;;;;6.62;94.29;101761.19;1409636;93;21415;-82
2022/10/18 05:38:05;;;;;;;35.83;19.93;;;;;;;6.61;94.02;101768.23;1399523;93;21429;-80
2022/10/18 05:40:32;;;;;;;37.78;20.25;;;;;;;6.57;94.41;101764.10;1402219;93;21385;-81
2022/10/18 05:42:58;;;;;;;43.90;21.43;;;;;;;6.57;94.38;101769.36;1394867;93;22331;-81
2022/10/18 05:45:24;;;;;;;55.80;23.37;;;;;;;6.59;94.92;101771.45;1394203;93;21444;-80
2022/10/18 05:47:50;;;;;;;51.50;27.10;;;;;;;6.62;94.98;101773.90;1406465;93;22110;-80
2022/10/18 05:50:16;;;;;;;65.80;27.60;;;;;;;6.65;95.25;101769.77;1390301;93;21459;-80
2022/10/18 05:52:42;;;;;;;54.70;24.27;;;;;;;6.71;95.56;101770.72;1402891;93;21584;-81
2022/10/18 05:55:08;;;;;;;59.87;26.33;;;;;;;6.78;96.00;101769.41;1399492;93;21560;-81
2022/10/18 05:57:34;;;;;;;56.77;27.63;;;;;;;6.86;95.96;101768.13;1403655;93;21439;-80
2022/10/18 06:00:01;;;;;;;54.67;27.00;;;;;;;6.93;95.90;101774.70;1395302;93;22368;-80
2022/10/18 06:02:26;;;;;;;53.03;25.77;;;;;;;7.01;96.33;101777.73;1396874;93;21422;-81
2022/10/18 06:04:52;;;;;;;45.20;25.03;;;;;;;7.11;96.25;101776.26;1399273;93;21340;-81
2022/10/18 06:07:18;;;;;;;47.77;25.17;;;;;;;7.23;96.18;101775.98;1403245;93;21482;-81
2022/10/18 06:09:44;;;;;;;48.87;25.43;;;;;;;7.34;96.44;101776.66;1402925;93;22252;-80
2022/10/18 06:12:11;;;;;;;46.70;24.97;;;;;;;7.46;96.26;101779.37;1375940;93;21370;-80
2022/10/18 06:14:37;;;;;;;50.57;26.13;;;;;;;7.59;96.17;101783.88;1401753;93;21618;-81
2022/10/18 06:17:04;;;;;;;48.60;27.43;;;;;;;7.71;96.17;101782.26;1400232;93;21357;-80
2022/10/18 06:19:30;;;;;;;52.33;26.87;;;;;;;7.81;96.26;101782.08;1398794;93;21473;-78
2022/10/18 06:21:56;;;;;;;44.63;26.60;;;;;;;7.91;96.05;101779.21;1384947;93;21415;-78
2022/10/18 06:24:22;;;;;;;56.37;27.67;;;;;;;8.02;95.79;101782.02;1402867;93;21415;-78
2022/10/18 06:26:48;;;;;;;54.90;27.07;;;;;;;8.18;95.86;101778.41;1395596;93;21636;-78
2022/10/18 06:29:15;;;;;;;52.03;26.47;;;;;;;8.32;95.41;101778.36;1394536;93;21459;-79
2022/10/18 06:31:41;;;;;;;56.50;29.13;;;;;;;8.48;95.25;101776.42;1406040;93;21519;-86
2022/10/18 06:34:07;;;;;;;57.03;30.73;;;;;;;8.70;95.24;101773.70;1402878;92;21895;-86
2022/10/18 06:36:33;;;;;;;51.53;29.27;;;;;;;8.90;95.09;101771.88;1406702;92;22228;-86
2022/10/18 06:38:59;;;;;;;48.37;29.57;;;;;;;9.10;94.70;101772.33;1419260;92;21466;-86
2022/10/18 06:41:25;;;;;;;56.33;28.00;;;;;;;9.28;94.47;101772.84;1398390;92;21362;-87
2022/10/18 06:43:56;;;;;;;40.00;23.87;;;;;;;9.46;94.24;101775.52;1419435;92;21546;-87
2022/10/18 06:46:21;;;;;;;40.30;23.37;;;;;;;9.63;94.13;101769.05;1432809;91;21514;-86
2022/10/18 06:48:47;;;;;;;37.90;22.00;;;;;;;9.84;93.89;101775.46;1414434;92;21514;-85
2022/10/18 06:51:14;;;;;;;34.80;19.93;;;;;;;10.07;93.90;101774.26;1422277;92;22552;-86
2022/10/18 06:53:40;;;;;;;30.70;20.47;;;;;;;10.28;93.31;101767.92;1427754;92;21428;-86
2022/10/18 06:56:13;;;;;;;35.80;19.60;;;;;;;10.48;92.74;101770.42;1425693;92;22282;-87
2022/10/18 06:58:39;;;;;;;26.53;20.10;;;;;;;10.66;92.21;101777.46;1415646;92;21590;-84
2022/10/18 07:01:12;;;;;;;29.53;21.10;;;;;;;10.83;91.50;101775.22;1426691;92;22493;-87
2022/10/18 07:03:39;;;;;;;36.87;19.40;;;;;;;11.02;91.38;101776.00;1421859;92;21406;-84
2022/10/18 07:06:08;;;;;;;40.10;19.67;;;;;;;11.21;91.11;101775.41;1426771;92;21554;-86
2022/10/18 07:08:35;;;;;;;29.77;18.53;;;;;;;11.39;90.46;101773.61;1407893;92;22301;-87
2022/10/18 07:11:01;;;;;;;30.90;21.07;;;;;;;11.56;90.13;101774.45;1424854;92;21406;-86
2022/10/18 07:13:30;;;;;;;37.47;21.83;;;;;;;11.75;89.54;101776.02;1422251;92;21384;-89
2022/10/18 07:16:08;;;;;;;32.53;22.23;;;;;;;11.96;89.19;101772.64;1416514;92;21400;-80
2022/10/18 07:18:42;;;;;;;32.90;21.60;;;;;;;12.12;88.16;101772.25;1426331;92;22456;-83
2022/10/18 07:21:13;;;;;;;37.60;21.00;;;;;;;12.30;87.90;101772.06;1422668;92;21480;-87
2022/10/18 07:23:41;;;;;;;;;;;;;;;12.48;87.44;101761.73;1428564;92;21453;-88
2022/10/18 07:26:17;;;;;;;35.40;21.57;;;;;;;12.62;86.57;101764.56;1427513;92;20906;-85
2022/10/18 07:28:47;;;;;;;42.93;20.07;;;;;;;12.75;86.34;101762.58;1428704;92;21281;-84
2022/10/18 07:31:13;;;;;;;43.77;20.57;;;;;;;12.93;86.47;101754.02;1420873;92;21486;-82
2022/10/18 07:33:39;;;;;;;62.40;18.70;;;;;;;13.10;86.38;101756.91;1422704;92;21607;-82
2022/10/18 07:36:08;;;;;;;27.80;19.60;;;;;;;13.31;86.25;101752.91;1420135;92;21377;-86
2022/10/18 07:38:35;;;;;;;39.30;20.17;;;;;;;13.49;84.99;101750.49;1420891;92;22323;-85
2022/10/18 07:41:05;;;;;;;36.73;21.17;;;;;;;13.65;84.70;101750.47;1419966;92;21429;-83
2022/10/18 07:43:33;;;;;;;29.15;19.35;;;;;;;13.83;83.96;101750.15;1420156;92;21377;-85
2022/10/18 07:46:02;;;;;;;38.07;20.00;;;;;;;14.02;83.61;101750.69;1425751;92;21570;-84
2022/10/18 07:48:28;;;;;;;44.00;21.73;;;;;;;14.14;82.49;101752.23;1416301;91;21384;-84
2022/10/18 07:50:59;;;;;;;37.70;22.17;;;;;;;14.16;80.96;101750.78;1434965;91;22338;-83
2022/10/18 07:53:26;;;;;;;;;;;;;;;14.09;79.45;101749.64;1430392;91;21390;-85
2022/10/18 07:55:56;;;;;;;34.00;19.80;;;;;;;14.16;80.47;101752.95;1429953;91;20243;-83
2022/10/18 07:58:22;;;;;;;37.23;22.60;;;;;;;14.24;79.59;101756.23;1431640;91;21940;-86
2022/10/18 08:00:48;;;;;;;36.03;20.83;;;;;;;14.37;80.30;101747.48;1427661;91;21427;-85
2022/10/18 08:03:14;;;;;;;41.90;23.70;;;;;;;14.50;79.67;101745.89;1426558;91;22382;-85
2022/10/18 08:05:40;;;;;;;38.37;22.43;;;;;;;14.57;78.51;101745.69;1435269;91;21353;-86
2022/10/18 08:08:06;;;;;;;39.67;24.83;;;;;;;14.57;76.92;101744.85;1433493;91;21449;-87
2022/10/18 08:10:34;;;;;;;46.20;25.57;;;;;;;14.71;78.42;101751.08;1437159;91;22256;-86
2022/10/18 08:13:00;;;;;;;32.03;22.70;;;;;;;14.78;77.66;101745.52;1425606;91;21487;-84
2022/10/18 08:15:26;;;;;;;46.03;26.47;;;;;;;14.73;76.25;101738.92;1431381;91;21435;-84
2022/10/18 08:17:52;;;;;;;42.87;25.47;;;;;;;14.84;76.61;101736.94;1430831;91;22242;-86
2022/10/18 08:20:18;;;;;;;37.07;24.83;;;;;;;14.91;77.19;101735.06;1429717;91;21456;-86
2022/10/18 08:22:44;;;;;;;37.63;25.27;;;;;;;15.11;77.57;101735.34;1433373;91;21692;-86
2022/10/18 08:25:10;;;;;;;37.87;25.47;;;;;;;15.23;76.89;101733.34;1434175;91;21377;-86
2022/10/18 08:27:36;;;;;;;36.63;24.87;;;;;;;15.38;76.63;101727.02;1432422;91;21472;-86
2022/10/18 08:30:03;;;;;;;48.97;25.07;;;;;;;15.47;75.70;101729.64;1431522;91;21362;-85
2022/10/18 08:32:29;;;;;;;42.93;25.87;;;;;;;15.58;74.98;101733.94;1433683;91;21494;-86
2022/10/18 08:34:55;;;;;;;49.57;26.40;;;;;;;15.68;74.83;101736.11;1433334;91;21406;-86
2022/10/18 08:37:22;;;;;;;34.53;23.87;;;;;;;15.73;74.05;101732.47;1428692;91;21414;-84
2022/10/18 08:39:48;;;;;;;45.73;27.00;;;;;;;15.82;71.74;101728.56;1433548;91;21383;-84
2022/10/18 08:42:37;;;;;;;38.27;24.50;;;;;;;15.97;73.77;101728.41;1433102;91;21420;-86
2022/10/18 08:45:05;;;;;;;35.47;23.57;;;;;;;16.15;73.42;101732.42;1435513;91;21604;-85
2022/10/18 08:47:42;;;;;;;39.80;23.43;;;;;;;16.20;72.90;101725.64;1432537;91;21346;-85
2022/10/18 08:50:21;;;;;;;30.80;24.50;;;;;;;16.36;73.30;101720.92;1430353;91;21369;-85
2022/10/18 08:53:02;;;;;;;32.90;22.53;;;;;;;16.49;73.09;101717.03;1432817;91;21640;-85
2022/10/18 08:55:40;;;;;;;;;;;;;;;16.57;71.54;101715.27;1433141;91;21428;-86
2022/10/18 08:58:23;;;;;;;39.93;23.80;;;;;;;16.75;72.40;101707.20;1427814;91;20310;-85
2022/10/18 09:01:14;;;;;;;30.53;20.93;;;;;;;17.01;72.07;101704.55;1434172;91;22450;-85
2022/10/18 09:04:23;;;;;;;40.37;22.53;;;;;;;17.14;69.93;101702.25;1428538;91;21412;-86
2022/10/18 09:07:24;;;;;;;35.97;21.63;;;;;;;17.52;69.96;101699.23;1432422;91;21399;-82
2022/10/18 09:10:41;;;;;;;31.10;23.40;;;;;;;18.10;68.42;101688.20;1426988;91;21347;-86
2022/10/18 09:13:42;;;;;;;28.42;19.57;;;;;;;18.81;66.84;101683.97;1438039;91;21631;-86
2022/10/18 09:16:12;;;;;;;;;;;;;;;19.54;64.91;101690.41;1414860;91;22522;-85
2022/10/18 09:19:15;;;;;;;28.10;19.15;;;;;;;20.14;62.61;101683.52;1430447;91;20428;-85
2022/10/18 09:21:55;;;;;;;28.75;20.45;;;;;;;20.62;61.53;101694.86;1425328;91;21450;-86
2022/10/18 09:24:32;;;;;;;28.67;17.70;;;;;;;20.60;57.69;101688.86;1431904;91;21385;-86
2022/10/18 09:27:16;;;;;;;23.47;18.62;;;;;;;20.83;59.30;101674.47;1431507;91;21413;-85
2022/10/18 09:30:10;;;;;;;25.20;17.62;;;;;;;20.83;59.30;101674.47;1427635;91;21627;-86
2022/10/18 09:32:57;;;;;;;21.85;18.15;;;;;;;20.95;58.08;101673.02;1434275;91;21421;-86
2022/10/18 09:35:28;;;;;;;27.87;15.38;;;;;;;20.95;58.08;101673.02;1431667;91;21642;-85
2022/10/18 09:38:04;;;;;;;24.05;16.77;;;;;;;21.56;57.47;101683.55;1427351;91;21479;-84
2022/10/18 09:40:35;;;;;;;30.90;16.90;;;;;;;21.69;50.95;101678.81;1431037;91;21597;-84
2022/10/18 09:43:16;;;;;;;25.08;15.65;;;;;;;22.05;53.86;101675.56;1407757;91;21686;-85
2022/10/18 09:45:45;;;;;;;23.05;17.55;;;;;;;22.41;53.42;101673.33;1424805;91;22471;-85
2022/10/18 09:48:28;;;;;;;20.23;14.87;;;;;;;22.79;53.04;101668.91;1428955;91;22344;-81
2022/10/18 09:51:05;;;;;;;16.85;14.13;;;;;;;22.81;52.16;101670.87;1432156;91;21612;-79
2022/10/18 09:54:12;;;;;;;19.57;14.33;;;;;;;22.44;51.41;101668.88;1426711;91;21376;-79
2022/10/18 09:56:49;;;;;;;16.75;14.23;;;;;;;22.28;51.79;101660.55;1429164;91;22469;-80
2022/10/18 09:59:41;;;;;;;17.75;13.78;;;;;;;22.42;51.77;101657.45;1430232;91;21501;-80
2022/10/18 10:02:21;;;;;;;18.77;12.00;;;;;;;22.70;50.53;101655.23;1433161;91;21582;-80
2022/10/18 10:04:49;;;;;;;19.90;13.58;;;;;;;22.80;48.60;101648.98;1428888;91;21527;-82
2022/10/18 10:07:34;;;;;;;20.40;13.45;;;;;;;22.49;49.84;101652.09;1432830;91;22315;-82
2022/10/18 10:10:17;;;;;;;23.70;11.93;;;;;;;22.64;50.22;101643.89;1433226;91;21515;-82
2022/10/18 10:12:44;;;;;;;17.60;13.00;;;;;;;22.98;49.84;101647.95;1422367;91;21538;-85
2022/10/18 10:15:25;;;;;;;20.77;12.88;;;;;;;22.78;45.82;101641.59;1405463;91;21606;-85
2022/10/18 10:18:21;;;;;;;22.52;14.13;;;;;;;22.67;47.53;101640.30;1429578;91;21589;-82
2022/10/18 10:20:54;;;;;;;22.30;14.90;;;;;;;23.07;48.34;101642.39;1394079;91;21472;-85
2022/10/18 10:23:31;;;;;;;21.00;14.10;;;;;;;23.41;47.18;101636.91;1425315;91;21734;-89
2022/10/18 10:26:15;;;;;;;24.52;14.68;;;;;;;23.64;46.92;101634.38;1428212;91;21449;-89
2022/10/18 10:28:47;;;;;;;24.87;12.78;;;;;;;23.79;46.12;101624.23;1418199;91;21472;-87
2022/10/18 10:31:34;;;;;;;25.20;12.63;;;;;;;23.83;46.56;101630.91;1427495;91;21464;-89
2022/10/18 10:34:14;;;;;;;22.95;11.85;;;;;;;23.93;46.00;101624.26;1425909;91;21376;-88
2022/10/18 10:36:53;;;;;;;13.88;10.63;;;;;;;24.00;45.41;101613.77;1435204;91;22120;-88
2022/10/18 10:39:23;;;;;;;19.73;11.57;;;;;;;23.99;46.18;101607.20;1425461;91;22536;-88
2022/10/18 10:41:55;;;;;;;;;;;;;;;23.31;43.01;101601.89;1431471;91;21531;-87
2022/10/18 10:44:32;;;;;;;18.87;12.47;;;;;;;22.77;44.37;101599.45;1428158;91;20303;-89
2022/10/18 10:46:59;;;;;;;23.60;13.40;;;;;;;22.90;46.58;101593.27;1430976;91;21571;-88
2022/10/18 10:49:30;;;;;;;21.57;14.78;;;;;;;23.07;46.00;101589.22;1429562;91;21538;-87
2022/10/18 10:52:02;;;;;;;27.27;12.90;;;;;;;23.02;45.78;101584.11;1432996;91;21612;-90
2022/10/18 10:54:34;;;;;;;22.52;14.35;;;;;;;22.60;43.27;101578.70;1439748;91;21553;-88
2022/10/18 10:57:16;;;;;;;22.40;13.70;;;;;;;22.30;45.64;101564.64;1428873;91;21478;-88
2022/10/18 10:59:48;;;;;;;28.73;13.95;;;;;;;22.34;46.24;101560.50;1429318;91;21435;-89
2022/10/18 11:02:32;;;;;;;22.15;12.45;;;;;;;22.62;47.21;101552.37;1422956;91;22379;-86
2022/10/18 11:05:23;;;;;;;20.15;13.22;;;;;;;22.84;47.40;101553.59;1427167;91;22314;-88
2022/10/18 11:07:54;;;;;;;22.22;13.55;;;;;;;23.08;47.08;101554.98;1427955;91;22322;-89
2022/10/18 11:10:28;;;;;;;22.67;13.80;;;;;;;23.25;46.50;101550.87;1428517;91;22442;-88
2022/10/18 11:13:12;;;;;;;28.30;14.18;;;;;;;23.19;46.27;101545.77;1421938;91;21450;-85
2022/10/18 11:15:43;;;;;;;21.27;13.10;;;;;;;23.14;46.01;101540.14;1392563;93;22567;-86
2022/10/18 11:18:32;;;;;;;22.17;12.78;;;;;;;22.84;46.20;101540.92;1396223;93;22867;-88
2022/10/18 11:21:16;;;;;;;19.50;10.53;;;;;;;22.69;46.10;101533.50;1306697;95;21331;-86
2022/10/18 11:23:43;;;;;;;17.07;10.78;;;;;;;22.56;46.65;101529.38;1468231;93;21384;-87
2022/10/18 11:26:33;;;;;;;23.42;12.95;;;;;;;22.58;46.44;101523.28;1350772;93;21510;-88
2022/10/18 11:29:21;;;;;;;14.60;11.48;;;;;;;22.79;46.07;101520.48;1394128;93;21486;-88
2022/10/18 11:32:09;;;;;;;19.12;12.90;;;;;;;22.95;46.52;101517.43;1394567;93;21488;-86
2022/10/18 11:34:49;;;;;;;24.52;11.65;;;;;;;23.14;46.24;101518.53;1394064;93;21575;-89